Weather at Fascene Airport

Public forecast

Using degrees Celsius for public forecast. Weather courtesy of forecast.io.

Current aviation weather report (METAR) for Fascene Airport

Report is more than 6 hours old.

2022/11/14 15:00 (retrieved 2 years ago)

FMNN 141500Z 26004KT 9999 BKN020 27/// Q1012

Aviation forecast (TAF) for Fascene Airport

Forecast is more than 12 hours old.

2023/02/22 18:09 (retrieved 1 year ago)

TAF FMNN 221700Z 2218/2318 VRB05KT 9000 FEW010 BKN020CB TEMPO 2218/2318 VRB15KT 4000 TSRA